METAR Data
IDs: Format: Raw Decoded Include TAF

Data at: 0840 UTC 07 Dec 2021

KOCF 070751Z AUTO 22004KT 1/4SM FG OVC001 16/16 A3007 RMK AO2 SLP182 T01610161
KOCF 070651Z AUTO 21004KT 1/4SM FG OVC001 16/16 A3007 RMK AO2 SLP184 T01610161
KOCF 070551Z AUTO 22003KT 1/4SM FG OVC001 17/17 A3009 RMK AO2 SLP188 T01670167 10194 20156 58009
KOCF 070451Z AUTO 00000KT 1/4SM FG OVC001 16/16 A3011 RMK AO2 SLP195 T01610161 TSNO
KOCF 070351Z AUTO 00000KT 1/4SM FG BKN001 16/16 A3011 RMK AO2 SLP196 T01610161
KOCF 070327Z AUTO 23003KT 1/2SM FG BKN001 17/17 A3011 RMK AO2
KOCF 070319Z AUTO 24003KT 1SM BR VV001 17/17 A3011 RMK AO2
KOCF 070316Z AUTO 22004KT 1 1/2SM BR FEW002 17/17 A3011 RMK AO2
KOCF 070251Z AUTO 21004KT 7SM CLR 18/18 A3011 RMK AO2 SLP197 T01780178 51005
KOCF 070151Z AUTO 23003KT 10SM CLR 18/18 A3011 RMK AO2 SLP196 T01780178
KOCF 070051Z AUTO 23004KT 10SM CLR 18/18 A3010 RMK AO2 SLP194 T01830178
KOCF 062351Z 21003KT 10SM CLR 19/17 A3010 RMK AO2 SLP192 T01890172 10272 20189 402720100 51016
KOCF 062251Z 29004KT 10SM CLR 22/18 A3009 RMK AO2 SLP191 T02170178
KOCF 062151Z 25008KT 10SM CLR 23/18 A3007 RMK AO2 SLP183 T02330178
KOCF 062051Z 23010KT 10SM CLR 25/17 A3005 RMK AO2 SLP176 T02500172 56011
KOCF 061951Z COR 27010G15KT 10SM SCT039 26/17 A3005 RMK AO2 SLP177 T02560172
KOCF 061851Z 24010KT 10SM BKN047 26/17 A3006 RMK AO2 SLP180 T02610167
KOCF 061751Z 21013KT 10SM SCT035 BKN043 26/18 A3008 RMK AO2 SLP187 T02610178 10261 20100 58028
KOCF 061651Z 20007KT 10SM CLR 26/18 A3012 RMK AO2 SLP199 T02560183
KOCF 061551Z 22007KT 10SM CLR 23/19 A3014 RMK AO2 SLP207 T02330194
KOCF 061451Z 19006KT 7SM FU CLR 21/18 A3016 RMK AO2 SLP215 T02110178 53009
KOCF 061351Z COR 00000KT 7SM FU CLR 17/15 A3015 RMK AO2 SLP211 T01670150
KOCF 061331Z 00000KT 10SM SCT005 15/13 A3015 RMK AO2
KOCF 061251Z 00000KT 10SM CLR 12/12 A3014 RMK AO2 SLP207 T01170117
KOCF 061151Z 00000KT 10SM CLR 11/10 A3014 RMK AO2 SLP206 T01060100 10128 20106 53005
KOCF 061051Z AUTO 00000KT 10SM CLR 11/11 A3013 RMK AO2 SLP202 T01110106
KOCF 060951Z AUTO 00000KT 10SM CLR 11/11 A3013 RMK AO2 SLP202 T01110111
KOCF 060851Z AUTO 00000KT 10SM CLR 12/12 A3012 RMK AO2 SLP200 T01170117 55010
KOCF 060751Z AUTO 00000KT 10SM CLR 12/12 A3012 RMK AO2 SLP199 T01220122
KOCF 060651Z AUTO 00000KT 10SM CLR 12/12 A3013 RMK AO2 SLP204 T01220122
KOCF 060551Z AUTO 00000KT 10SM CLR 13/12 A3015 RMK AO2 SLP210 T01280122 10183 20128 58005
KOCF 060451Z AUTO 00000KT 10SM CLR 13/13 A3017 RMK AO2 SLP215 T01330128
KOCF 060351Z AUTO 00000KT 10SM CLR 14/13 A3017 RMK AO2 SLP216 T01440128
KOCF 060251Z AUTO 00000KT 10SM CLR 16/14 A3017 RMK AO2 SLP215 T01560139 51013
KOCF 060151Z AUTO 00000KT 10SM SCT050 16/14 A3015 RMK AO2 SLP211 T01560139
KOCF 060051Z AUTO 00000KT 10SM CLR 16/14 A3014 RMK AO2 SLP208 T01610144
KOCF 052351Z 00000KT 8SM CLR 18/14 A3013 RMK AO2 SLP203 T01780139 10261 20178 402610089 53005
KOCF 052251Z 00000KT 10SM SCT055 21/14 A3012 RMK AO2 SLP200 T02110144
KOCF 052151Z 00000KT 10SM SCT055 24/14 A3011 RMK AO2 SLP197 T02390144
KOCF 052051Z COR 19005KT 10SM SCT045 26/14 A3011 RMK AO2 SLP198 T02560139 56010